KDLH/DLH METAR and TAF weather

Enter ICAO airport designator
Station Type Date Time Source
KDLH METAR 2022/08/12 13:55 UTC NOAA

KDLH 121355Z 14006KT 10SM BKN100 16/12 A3017 RMK AO2 SLP221 T01560122


Station Type Date Time Source
KDLH Decoded METAR 2022/08/12 13:55 UTC NOAA

Duluth, Duluth International Airport, MN, United States (KDLH) 46-50-34N 092-13-34W 435M
Aug 12, 2022 - 09:55 AM EDT / 2022.08.12 1355 UTC
Wind: from the SE (140 degrees) at 7 MPH (6 KT):0
Visibility: 10 mile(s):0
Sky conditions: mostly cloudy
Temperature: 60.1 F (15.6 C)
Dew Point: 54.0 F (12.2 C)
Relative Humidity: 80%
Pressure (altimeter): 30.17 in. Hg (1021 hPa)
ob: KDLH 121355Z 14006KT 10SM BKN100 16/12 A3017 RMK AO2 SLP221 T01560122
cycle: 14

Station Type Date Time Source
KDLH TAF 2022/08/12 12:42 UTC NOAA

TAF KDLH 121140Z 1212/1312 VRB04KT P6SM OVC100
FM121500 18007KT P6SM VCSH BKN070 OVC100
FM121800 17008G18KT P6SM VCSH BKN030 OVC070
FM122100 14008G18KT 6SM -SHRA BKN035 OVC070
FM130200 11006KT P6SM VCSH BKN050

Example: see airport list